createdAt,value
2019-02-14T00:01:46.364Z,6.60
2019-02-14T00:04:16.168Z,6.60
2019-02-14T00:06:45.965Z,6.60
2019-02-14T00:09:15.702Z,6.60
2019-02-14T00:11:45.544Z,6.70
2019-02-14T00:14:15.303Z,6.60
2019-02-14T00:16:45.072Z,6.70
2019-02-14T00:19:14.828Z,6.60
2019-02-14T00:21:44.814Z,6.60
2019-02-14T00:24:15.560Z,6.70
2019-02-14T00:26:45.323Z,6.60
2019-02-14T00:29:15.106Z,6.60
2019-02-14T00:31:44.880Z,6.60
2019-02-14T00:34:14.695Z,6.70
2019-02-14T00:36:44.509Z,6.70
2019-02-14T00:39:14.305Z,6.70
2019-02-14T00:41:44.011Z,6.70
2019-02-14T00:44:13.785Z,6.70
2019-02-14T00:46:43.502Z,6.70
2019-02-14T00:49:13.269Z,6.70
2019-02-14T00:51:43.055Z,6.70
2019-02-14T00:54:12.832Z,6.60
2019-02-14T00:56:42.515Z,6.60
2019-02-14T00:59:12.266Z,6.60
2019-02-14T01:01:41.977Z,6.60
2019-02-14T01:04:11.703Z,6.60
2019-02-14T01:06:41.555Z,6.60
2019-02-14T01:09:11.276Z,6.60
2019-02-14T01:11:41.005Z,6.50
2019-02-14T01:14:10.752Z,6.60
2019-02-14T01:16:40.612Z,6.60
2019-02-14T01:19:10.446Z,6.60
2019-02-14T01:21:40.148Z,6.60
2019-02-14T01:24:09.892Z,6.60
2019-02-14T01:26:39.642Z,6.60
2019-02-14T01:29:09.418Z,6.60
2019-02-14T01:31:39.111Z,6.60
2019-02-14T01:34:08.850Z,6.60
2019-02-14T01:36:38.557Z,6.60
2019-02-14T01:39:08.304Z,6.60
2019-02-14T01:41:38.022Z,6.60
2019-02-14T01:44:07.826Z,6.60
2019-02-14T01:46:37.513Z,6.60
2019-02-14T01:49:07.247Z,6.60
2019-02-14T01:51:36.979Z,6.50
2019-02-14T01:54:06.681Z,6.50
2019-02-14T01:56:36.458Z,6.60
2019-02-14T01:59:06.166Z,6.50
2019-02-14T02:01:35.912Z,6.50
2019-02-14T02:04:05.731Z,6.50
2019-02-14T02:06:35.488Z,6.60
2019-02-14T02:09:07.356Z,6.60
2019-02-14T02:11:37.210Z,6.60
2019-02-14T02:14:06.924Z,6.60
2019-02-14T02:16:36.738Z,6.60
2019-02-14T02:19:06.532Z,6.60
2019-02-14T02:21:36.283Z,6.60
2019-02-14T02:24:05.989Z,6.60
2019-02-14T02:26:35.852Z,6.60
2019-02-14T02:29:05.746Z,6.60
2019-02-14T02:31:37.216Z,6.60
2019-02-14T02:34:06.901Z,6.60
2019-02-14T02:36:36.802Z,6.70
2019-02-14T02:39:08.084Z,6.60
2019-02-14T02:41:37.802Z,6.60
2019-02-14T02:44:09.080Z,6.60
2019-02-14T02:46:38.986Z,6.60
2019-02-14T02:49:08.716Z,6.70
2019-02-14T02:51:38.649Z,6.60
2019-02-14T02:54:11.184Z,6.60
2019-02-14T02:56:40.972Z,6.60
2019-02-14T02:59:10.775Z,6.60
2019-02-14T03:01:40.529Z,6.60
2019-02-14T03:04:10.230Z,6.60
2019-02-14T03:06:39.973Z,6.60
2019-02-14T03:09:09.722Z,6.60
2019-02-14T03:11:39.550Z,6.60
2019-02-14T03:14:09.279Z,6.50
2019-02-14T03:16:39.032Z,6.40
2019-02-14T03:19:08.764Z,6.40
2019-02-14T03:21:38.507Z,6.40
2019-02-14T03:24:08.293Z,6.50
2019-02-14T03:26:38.029Z,6.50
2019-02-14T03:29:07.796Z,6.50
2019-02-14T03:31:37.582Z,6.50
2019-02-14T03:34:07.499Z,6.50
2019-02-14T03:36:37.231Z,6.50
2019-02-14T03:39:08.097Z,6.50
2019-02-14T03:41:38.016Z,6.50
2019-02-14T03:44:07.795Z,6.50
2019-02-14T03:46:37.627Z,6.40
2019-02-14T03:49:07.443Z,6.40
2019-02-14T03:51:37.261Z,6.40
2019-02-14T03:54:06.964Z,6.40
2019-02-14T03:56:36.755Z,6.30
2019-02-14T03:59:06.439Z,6.30
2019-02-14T04:01:36.167Z,6.40
2019-02-14T04:04:06.038Z,6.40
2019-02-14T04:06:35.753Z,6.40
2019-02-14T04:09:08.093Z,6.50
2019-02-14T04:11:37.914Z,6.50
2019-02-14T04:14:07.724Z,6.50
2019-02-14T04:16:37.543Z,6.40
2019-02-14T04:19:07.341Z,6.30
2019-02-14T04:21:37.061Z,6.30
2019-02-14T04:24:06.860Z,6.20
2019-02-14T04:26:38.072Z,6.20
2019-02-14T04:29:07.831Z,6.20
2019-02-14T04:31:37.551Z,6.30
2019-02-14T04:34:07.346Z,6.30
2019-02-14T04:36:37.122Z,6.30
2019-02-14T04:39:08.495Z,6.20
2019-02-14T04:41:38.220Z,6.30
2019-02-14T04:44:08.018Z,6.30
2019-02-14T04:46:37.748Z,6.30
2019-02-14T04:49:07.535Z,6.30
2019-02-14T04:51:37.242Z,6.40
2019-02-14T04:54:07.008Z,6.30
2019-02-14T04:56:36.797Z,6.30
2019-02-14T04:59:06.559Z,6.40
2019-02-14T05:01:36.377Z,6.30
2019-02-14T05:04:06.196Z,6.30
2019-02-14T05:06:44.081Z,6.20
2019-02-14T05:09:10.749Z,6.30
2019-02-14T05:11:40.440Z,6.30
2019-02-14T05:14:10.167Z,6.20
2019-02-14T05:16:39.882Z,6.30
2019-02-14T05:19:09.670Z,6.20
2019-02-14T05:21:39.414Z,6.20
2019-02-14T05:24:09.145Z,6.40
2019-02-14T05:26:38.990Z,6.30
2019-02-14T05:29:08.742Z,6.30
2019-02-14T05:31:38.587Z,6.30
2019-02-14T05:34:08.367Z,6.20
2019-02-14T05:36:38.096Z,6.20
2019-02-14T05:39:07.892Z,6.20
2019-02-14T05:41:37.623Z,6.20
2019-02-14T05:44:07.377Z,6.30
2019-02-14T05:46:37.191Z,6.30
2019-02-14T05:49:06.914Z,6.30
2019-02-14T05:51:36.843Z,6.20
2019-02-14T05:54:06.652Z,6.20
2019-02-14T05:56:36.368Z,6.30
2019-02-14T05:59:08.730Z,6.20
2019-02-14T06:01:41.552Z,6.30
2019-02-14T06:04:11.306Z,6.30
2019-02-14T06:06:41.039Z,6.40
2019-02-14T06:09:10.953Z,6.40
2019-02-14T06:11:40.650Z,6.30
2019-02-14T06:14:12.127Z,6.30
2019-02-14T06:16:41.888Z,6.40
2019-02-14T06:19:11.650Z,6.50
2019-02-14T06:21:41.471Z,6.50
2019-02-14T06:24:11.212Z,6.40
2019-02-14T06:26:42.682Z,6.40
2019-02-14T06:29:12.403Z,6.30
2019-02-14T06:31:42.161Z,6.40
2019-02-14T06:34:11.895Z,6.40
2019-02-14T06:36:44.635Z,6.30
2019-02-14T06:39:14.411Z,6.40
2019-02-14T06:41:47.143Z,6.30
2019-02-14T06:44:17.087Z,6.40
2019-02-14T06:46:46.983Z,6.30
2019-02-14T06:49:19.534Z,6.30
2019-02-14T06:51:49.261Z,6.30
2019-02-14T06:54:19.214Z,6.40
2019-02-14T06:56:48.969Z,6.30
2019-02-14T06:59:18.803Z,6.30
2019-02-14T07:01:48.575Z,6.40
2019-02-14T07:04:18.309Z,6.40
2019-02-14T07:06:48.295Z,6.40
2019-02-14T07:09:17.972Z,6.50
2019-02-14T07:11:47.718Z,6.50
2019-02-14T07:14:17.586Z,6.60
2019-02-14T07:16:47.435Z,6.50
2019-02-14T07:19:17.266Z,6.50
2019-02-14T07:21:47.160Z,6.50
2019-02-14T07:24:16.952Z,6.50
2019-02-14T07:26:47.206Z,6.40
2019-02-14T07:29:16.897Z,6.30
2019-02-14T07:31:46.656Z,6.30
2019-02-14T07:34:16.404Z,6.40
2019-02-14T07:36:46.194Z,6.40
2019-02-14T07:39:15.907Z,6.50
2019-02-14T07:41:45.651Z,6.50
2019-02-14T07:44:15.462Z,6.60
2019-02-14T07:46:45.244Z,6.50
2019-02-14T07:49:14.970Z,6.60
2019-02-14T07:51:45.434Z,6.70
2019-02-14T07:54:15.136Z,6.70
2019-02-14T07:56:44.880Z,6.70
2019-02-14T07:59:14.624Z,6.60
2019-02-14T08:01:44.371Z,6.70
2019-02-14T08:04:14.079Z,6.60
2019-02-14T08:06:43.835Z,6.70
2019-02-14T08:09:13.514Z,6.80
2019-02-14T08:11:43.274Z,6.90
2019-02-14T08:14:12.979Z,6.80
2019-02-14T08:16:42.746Z,6.90
2019-02-14T08:19:12.563Z,6.90
2019-02-14T08:21:42.286Z,6.90
2019-02-14T08:24:12.035Z,6.90
2019-02-14T08:26:41.812Z,7.00
2019-02-14T08:29:11.576Z,7.30
2019-02-14T08:31:41.553Z,7.40
2019-02-14T08:34:11.480Z,7.40
2019-02-14T08:36:41.207Z,7.30
2019-02-14T08:39:10.921Z,7.20
2019-02-14T08:41:40.821Z,7.20
2019-02-14T08:44:10.569Z,7.40
2019-02-14T08:46:40.756Z,7.40
2019-02-14T08:49:11.998Z,7.40
2019-02-14T08:51:41.794Z,7.60
2019-02-14T08:54:11.601Z,7.40
2019-02-14T08:56:41.475Z,7.40
2019-02-14T08:59:11.246Z,7.40
2019-02-14T09:01:41.024Z,7.30
2019-02-14T09:04:11.008Z,7.40
2019-02-14T09:06:40.828Z,7.30
2019-02-14T09:09:10.667Z,7.40
2019-02-14T09:11:40.672Z,7.40
2019-02-14T09:14:10.498Z,7.50
2019-02-14T09:16:40.244Z,7.50
2019-02-14T09:19:10.172Z,7.50
2019-02-14T09:21:39.976Z,7.50
2019-02-14T09:24:09.714Z,7.50
2019-02-14T09:26:39.486Z,7.40
2019-02-14T09:29:14.323Z,7.40
2019-02-14T09:31:43.731Z,7.40
2019-02-14T09:34:13.694Z,7.40
2019-02-14T09:36:43.574Z,7.40
2019-02-14T09:39:13.446Z,7.30
2019-02-14T09:41:43.163Z,7.40
2019-02-14T09:44:12.950Z,7.40
2019-02-14T09:46:42.704Z,7.40
2019-02-14T09:49:12.594Z,7.50
2019-02-14T09:51:42.370Z,7.40
2019-02-14T09:54:12.144Z,7.50
2019-02-14T09:56:41.894Z,7.60
2019-02-14T09:59:11.746Z,7.80
2019-02-14T10:01:41.470Z,7.90
2019-02-14T10:04:11.496Z,8.10
2019-02-14T10:06:41.223Z,8.20
2019-02-14T10:09:11.023Z,8.30
2019-02-14T10:11:40.817Z,8.50
2019-02-14T10:14:10.595Z,8.60
2019-02-14T10:16:40.372Z,8.60
2019-02-14T10:19:10.227Z,8.60
2019-02-14T10:21:39.980Z,8.50
2019-02-14T10:24:09.811Z,8.60
2019-02-14T10:26:39.501Z,8.40
2019-02-14T10:29:09.328Z,8.50
2019-02-14T10:31:39.055Z,8.40
2019-02-14T10:34:08.866Z,8.40
2019-02-14T10:36:38.581Z,8.50
2019-02-14T10:39:08.505Z,8.50
2019-02-14T10:41:38.240Z,8.50
2019-02-14T10:44:08.141Z,8.60
2019-02-14T10:46:37.958Z,8.80
2019-02-14T10:49:07.781Z,8.70
2019-02-14T10:51:37.503Z,8.70
2019-02-14T10:54:07.288Z,8.70
2019-02-14T10:56:37.049Z,8.80
2019-02-14T10:59:06.898Z,8.90
2019-02-14T11:01:36.624Z,9.00
2019-02-14T11:04:06.515Z,9.00
2019-02-14T11:06:36.310Z,9.00
2019-02-14T11:09:06.837Z,8.90
2019-02-14T11:11:36.660Z,8.80
2019-02-14T11:14:06.435Z,8.70
2019-02-14T11:16:36.181Z,8.50
2019-02-14T11:19:05.990Z,8.50
2019-02-14T11:21:35.794Z,8.50
2019-02-14T11:24:05.627Z,8.40
2019-02-14T11:26:35.342Z,8.40
2019-02-14T11:29:05.127Z,8.60
2019-02-14T11:31:34.927Z,8.50
2019-02-14T11:34:04.741Z,8.60
2019-02-14T11:36:34.451Z,8.70
2019-02-14T11:39:05.931Z,8.60
2019-02-14T11:41:35.711Z,8.50
2019-02-14T11:44:05.464Z,8.50
2019-02-14T11:46:35.171Z,8.50
2019-02-14T11:49:04.966Z,8.50
2019-02-14T11:51:34.746Z,8.40
2019-02-14T11:54:04.561Z,8.40
2019-02-14T11:56:34.287Z,8.30
2019-02-14T11:59:04.123Z,8.40
2019-02-14T12:01:33.891Z,8.40
2019-02-14T12:04:03.614Z,8.50
2019-02-14T12:06:33.486Z,8.50
2019-02-14T12:09:04.777Z,8.40
2019-02-14T12:11:34.564Z,8.40
2019-02-14T12:14:04.383Z,8.30
2019-02-14T12:16:34.152Z,8.20
2019-02-14T12:19:03.887Z,8.20
2019-02-14T12:21:33.643Z,8.20
2019-02-14T12:24:03.467Z,8.10
2019-02-14T12:26:33.201Z,8.20
2019-02-14T12:29:03.067Z,8.20
2019-02-14T12:31:32.912Z,8.30
2019-02-14T12:34:02.647Z,8.30
2019-02-14T12:36:32.484Z,8.30
2019-02-14T12:39:08.613Z,8.40
2019-02-14T12:41:33.767Z,8.50
2019-02-14T12:44:03.489Z,8.30
2019-02-14T12:46:33.291Z,8.30
2019-02-14T12:49:03.120Z,8.30
2019-02-14T12:51:33.196Z,8.20
2019-02-14T12:54:03.051Z,8.30
2019-02-14T12:56:32.813Z,8.30
2019-02-14T12:59:02.641Z,8.30
2019-02-14T13:01:32.409Z,8.40
2019-02-14T13:04:02.153Z,8.50
2019-02-14T13:06:31.882Z,8.50
2019-02-14T13:09:01.793Z,8.50
2019-02-14T13:11:31.664Z,8.50
2019-02-14T13:14:01.453Z,8.50
2019-02-14T13:16:31.310Z,8.50
2019-02-14T13:19:01.134Z,8.50
2019-02-14T13:21:30.943Z,8.40
2019-02-14T13:24:00.682Z,8.40
2019-02-14T13:26:30.437Z,8.20
2019-02-14T13:29:00.128Z,8.30
2019-02-14T13:31:32.062Z,8.40
2019-02-14T13:34:01.188Z,8.40
2019-02-14T13:36:33.692Z,8.30
2019-02-14T13:39:05.020Z,8.60
2019-02-14T13:41:34.908Z,8.60
2019-02-14T13:44:04.884Z,8.50
2019-02-14T13:46:34.638Z,8.50
2019-02-14T13:49:04.747Z,8.50
2019-02-14T13:51:34.791Z,8.40
2019-02-14T13:54:07.259Z,8.40
2019-02-14T13:56:37.061Z,8.40
2019-02-14T13:59:07.079Z,8.40
2019-02-14T14:01:36.953Z,8.40
2019-02-14T14:04:06.683Z,8.50
2019-02-14T14:06:36.467Z,8.60
2019-02-14T14:09:09.484Z,8.60
2019-02-14T14:11:39.216Z,8.70
2019-02-14T14:14:08.916Z,8.60
2019-02-14T14:16:38.719Z,8.70
2019-02-14T14:19:08.417Z,8.60
2019-02-14T14:21:38.201Z,8.60
2019-02-14T14:24:07.993Z,8.60
2019-02-14T14:26:37.820Z,8.70
2019-02-14T14:29:07.511Z,8.60
2019-02-14T14:31:37.343Z,8.50
2019-02-14T14:34:07.099Z,8.60
2019-02-14T14:36:36.895Z,8.70
2019-02-14T14:39:07.646Z,8.70
2019-02-14T14:41:37.402Z,8.80
2019-02-14T14:44:13.330Z,8.70
2019-02-14T14:46:54.804Z,8.70
2019-02-14T14:49:24.590Z,8.80
2019-02-14T14:51:54.376Z,8.70
2019-02-14T14:54:24.095Z,8.70
2019-02-14T14:56:53.853Z,8.70
2019-02-14T14:59:23.715Z,8.70
2019-02-14T15:01:53.583Z,8.70
2019-02-14T15:04:25.412Z,8.50
2019-02-14T15:06:55.472Z,8.50
2019-02-14T15:09:25.401Z,8.50
2019-02-14T15:11:55.241Z,8.60
2019-02-14T15:14:25.147Z,8.50
2019-02-14T15:16:54.908Z,8.50
2019-02-14T15:19:24.628Z,8.50
2019-02-14T15:21:54.560Z,8.50
2019-02-14T15:24:26.087Z,8.40
2019-02-14T15:26:55.822Z,8.40
2019-02-14T15:29:25.582Z,8.40
2019-02-14T15:31:55.421Z,8.40
2019-02-14T15:34:25.148Z,8.40
2019-02-14T15:36:54.954Z,8.40
2019-02-14T15:39:24.847Z,8.40
2019-02-14T15:41:56.135Z,8.20
2019-02-14T15:44:26.129Z,8.20
2019-02-14T15:46:55.982Z,8.10
2019-02-14T15:49:25.756Z,8.10
2019-02-14T15:51:55.475Z,8.10
2019-02-14T15:54:25.263Z,8.10
2019-02-14T15:56:56.512Z,8.10
2019-02-14T15:59:31.427Z,8.10
2019-02-14T16:02:01.169Z,8.00
2019-02-14T16:04:31.365Z,7.90
2019-02-14T16:07:01.280Z,8.00
2019-02-14T16:09:31.048Z,8.00
2019-02-14T16:12:00.771Z,8.10
2019-02-14T16:14:30.514Z,8.20
2019-02-14T16:17:00.282Z,8.20
2019-02-14T16:19:30.196Z,8.30
2019-02-14T16:21:59.946Z,8.30
2019-02-14T16:24:29.796Z,8.20
2019-02-14T16:27:01.178Z,8.30
2019-02-14T16:29:32.472Z,8.40
2019-02-14T16:32:02.260Z,8.40
2019-02-14T16:34:32.000Z,8.50
2019-02-14T16:37:01.849Z,8.50
2019-02-14T16:39:31.585Z,8.50
2019-02-14T16:42:01.387Z,8.60
2019-02-14T16:44:31.243Z,8.60
2019-02-14T16:47:01.056Z,8.50
2019-02-14T16:49:30.874Z,8.50
2019-02-14T16:52:00.715Z,8.30
2019-02-14T16:54:30.436Z,8.20
2019-02-14T16:57:00.224Z,8.10
2019-02-14T16:59:29.964Z,8.10
2019-02-14T17:01:59.692Z,8.00
2019-02-14T17:04:29.620Z,8.10
2019-02-14T17:06:59.292Z,8.20
2019-02-14T17:09:29.163Z,8.20
2019-02-14T17:11:58.899Z,8.20
2019-02-14T17:14:28.693Z,8.20
2019-02-14T17:16:58.411Z,8.20
2019-02-14T17:19:28.183Z,8.20
2019-02-14T17:21:57.933Z,8.20
2019-02-14T17:24:27.710Z,8.20
2019-02-14T17:26:57.572Z,8.20
2019-02-14T17:29:27.301Z,8.10
2019-02-14T17:31:58.712Z,8.00
2019-02-14T17:34:28.465Z,7.90
2019-02-14T17:37:00.258Z,7.80
2019-02-14T17:39:30.067Z,7.80
2019-02-14T17:41:59.802Z,7.90
2019-02-14T17:44:29.576Z,8.00
2019-02-14T17:46:59.338Z,8.00
2019-02-14T17:49:29.125Z,7.80
2019-02-14T17:51:58.961Z,7.80
2019-02-14T17:54:28.785Z,7.90
2019-02-14T17:56:58.508Z,7.90
2019-02-14T17:59:28.283Z,8.00
2019-02-14T18:01:58.043Z,8.10
2019-02-14T18:04:27.820Z,8.00
2019-02-14T18:06:57.564Z,8.00
2019-02-14T18:09:27.314Z,8.00
2019-02-14T18:11:57.070Z,8.00
2019-02-14T18:14:26.932Z,8.00
2019-02-14T18:16:56.690Z,7.90
2019-02-14T18:19:26.440Z,7.80
2019-02-14T18:21:56.237Z,7.90
2019-02-14T18:24:26.022Z,7.90
2019-02-14T18:26:55.794Z,7.90
2019-02-14T18:29:25.635Z,8.00
2019-02-14T18:31:56.384Z,8.00
2019-02-14T18:34:26.184Z,8.00
2019-02-14T18:36:55.888Z,8.10
2019-02-14T18:39:25.742Z,8.00
2019-02-14T18:41:55.507Z,8.00
2019-02-14T18:44:25.291Z,8.00
2019-02-14T18:46:55.067Z,7.90
2019-02-14T18:49:24.851Z,8.00
2019-02-14T18:51:54.655Z,8.00
2019-02-14T18:54:24.408Z,8.00
2019-02-14T18:56:54.164Z,8.00
2019-02-14T18:59:23.903Z,8.00
2019-02-14T19:01:53.603Z,7.90
2019-02-14T19:04:23.379Z,7.90
2019-02-14T19:06:53.292Z,7.90
2019-02-14T19:09:23.073Z,7.80
2019-02-14T19:11:52.827Z,7.70
2019-02-14T19:14:22.638Z,7.80
2019-02-14T19:16:52.351Z,7.80
2019-02-14T19:19:22.227Z,7.70
2019-02-14T19:21:51.949Z,7.70
2019-02-14T19:24:21.839Z,7.80
2019-02-14T19:26:51.679Z,7.80
2019-02-14T19:29:21.414Z,7.80
2019-02-14T19:31:51.209Z,7.80
2019-02-14T19:34:20.941Z,7.80
2019-02-14T19:36:50.688Z,7.80
2019-02-14T19:39:20.562Z,7.80
2019-02-14T19:41:52.197Z,7.70
2019-02-14T19:44:23.913Z,7.50
2019-02-14T19:46:55.205Z,7.60
2019-02-14T19:49:25.056Z,7.70
2019-02-14T19:51:56.721Z,7.70
2019-02-14T19:54:26.533Z,7.80
2019-02-14T19:56:56.591Z,7.90
2019-02-14T19:59:26.349Z,8.00
2019-02-14T20:01:56.116Z,8.00
2019-02-14T20:04:25.872Z,8.00
2019-02-14T20:06:55.698Z,8.00
2019-02-14T20:09:25.839Z,8.00
2019-02-14T20:11:56.601Z,7.90
2019-02-14T20:14:26.376Z,7.90
2019-02-14T20:16:56.181Z,7.90
2019-02-14T20:19:26.043Z,7.90
2019-02-14T20:21:56.239Z,7.90
2019-02-14T20:24:26.028Z,7.90
2019-02-14T20:26:56.527Z,7.90
2019-02-14T20:29:26.528Z,7.80
2019-02-14T20:31:56.310Z,7.90
2019-02-14T20:34:26.078Z,7.90
2019-02-14T20:36:55.850Z,7.90
2019-02-14T20:39:25.649Z,7.90
2019-02-14T20:41:58.248Z,7.90
2019-02-14T20:44:30.317Z,7.90
2019-02-14T20:47:00.426Z,7.90
2019-02-14T20:49:30.197Z,8.00
2019-02-14T20:52:00.163Z,7.90
2019-02-14T20:54:31.975Z,7.80
2019-02-14T20:57:02.125Z,7.80
2019-02-14T20:59:34.169Z,7.80
2019-02-14T21:02:06.375Z,7.90
2019-02-14T21:04:36.150Z,7.80
2019-02-14T21:07:06.003Z,7.70
2019-02-14T21:09:35.707Z,7.80
2019-02-14T21:12:05.571Z,7.80
2019-02-14T21:14:35.962Z,7.80
2019-02-14T21:17:08.986Z,7.80
2019-02-14T21:19:38.782Z,7.90
2019-02-14T21:22:17.947Z,7.80
2019-02-14T21:24:40.791Z,7.90
2019-02-14T21:27:10.651Z,7.90
2019-02-14T21:29:40.876Z,7.90
2019-02-14T21:32:10.623Z,7.90
2019-02-14T21:34:40.352Z,7.80
2019-02-14T21:37:10.385Z,7.80
2019-02-14T21:39:41.432Z,7.80
2019-02-14T21:42:20.534Z,7.70
2019-02-14T21:44:47.776Z,7.70
2019-02-14T21:47:19.357Z,7.70
2019-02-14T21:49:49.237Z,7.80
2019-02-14T21:52:19.070Z,7.90
2019-02-14T21:54:48.924Z,7.80
2019-02-14T21:57:21.631Z,7.70
2019-02-14T21:59:51.545Z,7.60
2019-02-14T22:02:21.350Z,7.70
2019-02-14T22:04:51.137Z,7.50
2019-02-14T22:07:20.937Z,7.60
2019-02-14T22:09:50.824Z,7.70
2019-02-14T22:12:38.912Z,7.70
2019-02-14T22:14:53.436Z,7.70
2019-02-14T22:17:23.287Z,7.70
2019-02-14T22:19:53.004Z,7.70
2019-02-14T22:22:22.742Z,7.70
2019-02-14T22:24:52.452Z,7.60
2019-02-14T22:27:22.253Z,7.60
2019-02-14T22:29:51.989Z,7.60
2019-02-14T22:32:21.743Z,7.60
2019-02-14T22:34:51.459Z,7.50
2019-02-14T22:37:21.186Z,7.50
2019-02-14T22:39:51.013Z,7.50
2019-02-14T22:42:20.759Z,7.50
2019-02-14T22:44:50.455Z,7.50
2019-02-14T22:47:20.233Z,7.40
2019-02-14T22:49:50.095Z,7.40
2019-02-14T22:52:20.032Z,7.40
2019-02-14T22:54:49.750Z,7.40
2019-02-14T22:57:19.481Z,7.40
2019-02-14T22:59:49.267Z,7.40
2019-02-14T23:02:19.101Z,7.40
2019-02-14T23:04:48.907Z,7.40
2019-02-14T23:07:18.696Z,7.50
2019-02-14T23:09:48.508Z,7.50
2019-02-14T23:12:18.248Z,7.50
2019-02-14T23:14:47.968Z,7.50
2019-02-14T23:17:17.688Z,7.50
2019-02-14T23:19:47.380Z,7.40
2019-02-14T23:22:17.135Z,7.40
2019-02-14T23:24:46.960Z,7.40
2019-02-14T23:27:16.747Z,7.30
2019-02-14T23:29:49.937Z,7.30
2019-02-14T23:32:19.871Z,7.20
2019-02-14T23:34:49.626Z,7.20
2019-02-14T23:37:19.503Z,7.20
2019-02-14T23:39:49.409Z,7.20
2019-02-14T23:42:19.152Z,7.20
2019-02-14T23:44:48.864Z,7.30
2019-02-14T23:47:18.584Z,7.20
2019-02-14T23:49:48.341Z,7.20
2019-02-14T23:52:18.187Z,7.20
2019-02-14T23:54:48.080Z,7.20
2019-02-14T23:57:17.756Z,7.20
2019-02-14T23:59:47.522Z,7.10
